Time;durP1;ratioP1;P1;durP2;ratioP2;P2;SDS_P1;SDS_P2;PMS_P1;PMS_P2;Temp;Humidity;BMP_temperature;BMP_pressure;BME280_temperature;BME280_humidity;BME280_pressure;Samples;Min_cycle;Max_cycle;Signal;HPM_P1;HPM_P2
2023/02/27 06:53:53;;;;;;;2.90;1.60;;;;;;;;;;10506414;28;20463;-84
2023/02/27 06:58:54;;;;;;;3.55;1.67;;;;;;;;;;10503705;28;20537;-84
2023/02/27 07:03:55;;;;;;;3.25;1.98;;;;;;;;;;10503989;28;20039;-84
2023/02/27 07:08:56;;;;;;;3.35;1.92;;;;;;;;;;10508336;28;20032;-84
2023/02/27 07:13:57;;;;;;;3.38;1.60;;;;;;;;;;10504815;28;20061;-84
2023/02/27 07:18:58;;;;;;;3.42;2.05;;;;;;;;;;10505200;28;20044;-84
2023/02/27 07:24:01;;;;;;;2.90;2.00;;;;;;;;;;10503752;28;20028;-84
2023/02/27 07:29:02;;;;;;;3.45;2.10;;;;;;;;;;10502920;28;20499;-84
2023/02/27 07:34:03;;;;;;;3.35;2.00;;;;;;;;;;10502267;28;20032;-85
2023/02/27 07:39:07;;;;;;;3.05;1.77;;;;;;;;;;10502561;28;20093;-85
2023/02/27 07:44:09;;;;;;;3.25;1.83;;;;;;;;;;10500549;28;20037;-85
2023/02/27 07:49:10;;;;;;;3.10;1.77;;;;;;;;;;10499066;28;20487;-85
2023/02/27 07:54:11;;;;;;;;;;;;;;;;;;10498153;28;20040;-84
2023/02/27 07:59:12;;;;;;;11.75;7.25;;;;;;;;;;10496834;28;19905;-85
2023/02/27 08:04:13;;;;;;;2.97;1.90;;;;;;;;;;10472485;28;20047;-79
2023/02/27 08:09:14;;;;;;;3.22;2.30;;;;;;;;;;10467625;28;20093;-79
2023/02/27 08:14:15;;;;;;;;;;;;;;;;;;10475855;28;20036;-80
2023/02/27 08:19:16;;;;;;;5.15;2.33;;;;;;;;;;10466193;28;20331;-79
2023/02/27 08:24:17;;;;;;;3.83;2.05;;;;;;;;;;10468683;28;20044;-80
2023/02/27 08:29:19;;;;;;;6.32;3.03;;;;;;;;;;10467535;28;20131;-80
2023/02/27 08:34:20;;;;;;;;;;;;;;;;;;10468057;28;20025;-81
2023/02/27 08:39:23;;;;;;;5.22;2.40;;;;;;;;;;10468672;28;19909;-80
2023/02/27 08:44:24;;;;;;;3.28;2.15;;;;;;;;;;10463717;28;20082;-80
2023/02/27 08:49:25;;;;;;;2.75;1.85;;;;;;;;;;10463790;28;20040;-79
2023/02/27 08:54:26;;;;;;;6.18;3.00;;;;;;;;;;10463254;28;20049;-80
2023/02/27 08:59:27;;;;;;;5.70;2.70;;;;;;;;;;10476075;28;20085;-79
2023/02/27 09:04:28;;;;;;;3.70;2.17;;;;;;;;;;10480036;28;20036;-80
2023/02/27 09:09:29;;;;;;;5.72;2.80;;;;;;;;;;10487409;28;20057;-80
2023/02/27 09:14:30;;;;;;;5.40;2.33;;;;;;;;;;10482761;28;20032;-80
2023/02/27 09:19:31;;;;;;;4.68;2.20;;;;;;;;;;10466034;28;20036;-81
2023/02/27 09:24:32;;;;;;;5.28;2.70;;;;;;;;;;10467483;28;20108;-81
2023/02/27 09:29:33;;;;;;;4.13;2.28;;;;;;;;;;10468854;28;20094;-80
2023/02/27 09:34:34;;;;;;;5.30;2.58;;;;;;;;;;10472903;28;20542;-83
2023/02/27 09:39:35;;;;;;;;;;;;;;;;;;10462345;28;20036;-80
2023/02/27 09:44:43;;;;;;;5.22;1.90;;;;;;;;;;10462176;28;19908;-81
2023/02/27 09:49:51;;;;;;;4.93;2.50;;;;;;;;;;10463888;28;20025;-81
2023/02/27 09:54:53;;;;;;;5.85;2.30;;;;;;;;;;10461622;28;20116;-79
2023/02/27 09:59:59;;;;;;;3.80;1.70;;;;;;;;;;10465029;28;20040;-80
2023/02/27 10:05:16;;;;;;;5.15;1.55;;;;;;;;;;10485290;28;20029;-79
2023/02/27 10:10:38;;;;;;;4.45;2.03;;;;;;;;;;10491740;28;20021;-79
2023/02/27 10:15:42;;;;;;;3.53;1.55;;;;;;;;;;10472523;28;20017;-80
2023/02/27 10:20:47;;;;;;;3.55;1.60;;;;;;;;;;10461606;28;20025;-80
2023/02/27 10:25:50;;;;;;;2.63;1.40;;;;;;;;;;10459443;28;20029;-80
2023/02/27 10:30:53;;;;;;;2.67;1.40;;;;;;;;;;10463736;28;20440;-80
2023/02/27 10:35:54;;;;;;;2.85;1.60;;;;;;;;;;10466704;28;20025;-81
2023/02/27 10:40:56;;;;;;;4.30;1.80;;;;;;;;;;10491698;22;20029;-83
2023/02/27 10:46:01;;;;;;;3.92;2.42;;;;;;;;;;10387473;28;20050;-83
2023/02/27 10:51:19;;;;;;;4.50;1.58;;;;;;;;;;10387297;28;20116;-83
2023/02/27 10:56:25;;;;;;;3.88;1.60;;;;;;;;;;10386951;28;20265;-83
2023/02/27 11:01:40;;;;;;;3.88;1.90;;;;;;;;;;10374588;28;20058;-82
2023/02/27 11:06:41;;;;;;;4.35;1.63;;;;;;;;;;10396530;28;20089;-82
2023/02/27 11:11:42;;;;;;;5.15;1.88;;;;;;;;;;10397048;28;20022;-82
2023/02/27 11:16:51;;;;;;;4.10;2.25;;;;;;;;;;10397594;28;20061;-81
2023/02/27 11:22:03;;;;;;;5.03;2.30;;;;;;;;;;10396651;28;20041;-81
2023/02/27 11:27:16;;;;;;;2.65;1.50;;;;;;;;;;10390601;28;20025;-81
2023/02/27 11:32:18;;;;;;;7.40;4.18;;;;;;;;;;10392178;28;20041;-83
2023/02/27 11:37:33;;;;;;;2.78;1.33;;;;;;;;;;10396143;28;20030;-82
2023/02/27 11:42:35;;;;;;;2.55;1.33;;;;;;;;;;10399663;28;20034;-82
2023/02/27 11:47:38;;;;;;;2.90;1.30;;;;;;;;;;10399259;28;20369;-81
2023/02/27 11:52:50;;;;;;;2.85;1.35;;;;;;;;;;10404117;28;20030;-82
2023/02/27 11:57:59;;;;;;;4.45;1.88;;;;;;;;;;10402166;28;20061;-81
2023/02/27 12:03:00;;;;;;;3.45;1.55;;;;;;;;;;10422435;28;20048;-81
2023/02/27 12:08:01;;;;;;;7.85;4.32;;;;;;;;;;10422725;28;20033;-82
2023/02/27 12:13:04;;;;;;;3.15;1.42;;;;;;;;;;10409436;28;20098;-82
2023/02/27 12:18:08;;;;;;;1.70;1.10;;;;;;;;;;10411159;28;20387;-82
2023/02/27 12:23:16;;;;;;;4.10;2.00;;;;;;;;;;10389519;28;20129;-82
2023/02/27 12:28:23;;;;;;;3.03;1.30;;;;;;;;;;10393406;28;20029;-81
2023/02/27 12:33:44;;;;;;;4.03;1.85;;;;;;;;;;10391932;28;20101;-81
2023/02/27 12:38:45;;;;;;;3.42;1.70;;;;;;;;;;10399633;28;20040;-80
2023/02/27 12:44:06;;;;;;;3.53;1.90;;;;;;;;;;10408127;28;20036;-81
2023/02/27 12:49:13;;;;;;;3.70;1.92;;;;;;;;;;10404629;28;20124;-81
2023/02/27 12:54:17;;;;;;;2.80;1.85;;;;;;;;;;10393868;28;20022;-80
2023/02/27 12:59:24;;;;;;;4.95;1.40;;;;;;;;;;10394883;28;20097;-80
2023/02/27 13:04:59;;;;;;;2.50;1.27;;;;;;;;;;10397183;28;20034;-81
2023/02/27 13:10:04;;;;;;;2.80;1.73;;;;;;;;;;10373010;28;20042;-81
2023/02/27 13:15:14;;;;;;;3.10;1.60;;;;;;;;;;10422125;28;20022;-82
2023/02/27 13:20:22;;;;;;;4.68;1.50;;;;;;;;;;10409287;28;20444;-82
2023/02/27 13:25:23;;;;;;;3.28;1.15;;;;;;;;;;10391245;28;20037;-82
2023/02/27 13:30:32;;;;;;;5.65;3.47;;;;;;;;;;10387033;28;20125;-82
2023/02/27 13:35:52;;;;;;;3.72;1.70;;;;;;;;;;10391269;28;20030;-81
2023/02/27 13:40:53;;;;;;;3.28;1.35;;;;;;;;;;10391890;28;20064;-83
2023/02/27 13:45:54;;;;;;;;;;;;;;;;;;10397240;28;20030;-82
2023/02/27 13:50:55;;;;;;;3.22;1.80;;;;;;;;;;10396817;28;20425;-82
2023/02/27 13:56:20;;;;;;;3.30;1.65;;;;;;;;;;10393596;28;20483;-82
2023/02/27 14:01:26;;;;;;;2.45;1.30;;;;;;;;;;10386407;28;20038;-82
2023/02/27 14:06:28;;;;;;;3.03;1.60;;;;;;;;;;10417785;28;20052;-81
2023/02/27 14:11:38;;;;;;;3.53;1.85;;;;;;;;;;10386531;28;20112;-81
2023/02/27 14:16:39;;;;;;;3.47;1.90;;;;;;;;;;10384038;28;20033;-81
2023/02/27 14:22:00;;;;;;;2.30;1.52;;;;;;;;;;10381635;28;20140;-81
2023/02/27 14:27:03;;;;;;;3.10;1.92;;;;;;;;;;10382573;28;20026;-81
2023/02/27 14:32:07;;;;;;;8.20;5.20;;;;;;;;;;10381400;28;20032;-82
2023/02/27 14:37:12;;;;;;;2.55;1.50;;;;;;;;;;10382811;28;20042;-80
2023/02/27 14:42:25;;;;;;;4.00;1.92;;;;;;;;;;10382500;28;20044;-81
2023/02/27 14:47:34;;;;;;;2.90;1.52;;;;;;;;;;10382765;28;20045;-81
2023/02/27 14:52:42;;;;;;;3.70;1.65;;;;;;;;;;10384222;28;20030;-80
2023/02/27 14:58:13;;;;;;;3.50;2.00;;;;;;;;;;10390567;28;20087;-82
2023/02/27 15:03:22;;;;;;;3.47;2.10;;;;;;;;;;10372487;28;20038;-81
2023/02/27 15:08:25;;;;;;;3.33;2.00;;;;;;;;;;10389943;28;20049;-81
2023/02/27 15:13:28;;;;;;;7.25;5.18;;;;;;;;;;10393409;28;20044;-81
2023/02/27 15:18:30;;;;;;;3.40;1.70;;;;;;;;;;10405657;28;20046;-79
2023/02/27 15:23:32;;;;;;;4.88;2.38;;;;;;;;;;10393235;28;20034;-80
2023/02/27 15:28:37;;;;;;;7.95;5.30;;;;;;;;;;10385838;28;20030;-81
2023/02/27 15:33:40;;;;;;;4.28;1.98;;;;;;;;;;10394350;28;20078;-80
2023/02/27 15:38:41;;;;;;;3.38;1.55;;;;;;;;;;10387021;28;20373;-81
2023/02/27 15:43:43;;;;;;;3.83;1.70;;;;;;;;;;10385280;28;20124;-82
2023/02/27 15:48:45;;;;;;;5.13;2.35;;;;;;;;;;10387357;28;20451;-81
2023/02/27 15:53:49;;;;;;;3.15;1.40;;;;;;;;;;10400485;28;20082;-80
2023/02/27 15:58:56;;;;;;;3.53;1.70;;;;;;;;;;10407866;28;20030;-81
2023/02/27 16:04:05;;;;;;;2.40;1.48;;;;;;;;;;10385074;28;20041;-82
2023/02/27 16:09:16;;;;;;;3.67;1.73;;;;;;;;;;10383946;28;20099;-82
2023/02/27 16:14:17;;;;;;;;;;;;;;;;;;10384003;28;20034;-81
2023/02/27 16:19:25;;;;;;;5.35;3.03;;;;;;;;;;10383058;28;19905;-82
2023/02/27 16:24:31;;;;;;;3.38;1.67;;;;;;;;;;10407415;28;20014;-81
2023/02/27 16:29:36;;;;;;;3.13;1.40;;;;;;;;;;10403392;28;20037;-81
2023/02/27 16:34:39;;;;;;;3.35;1.63;;;;;;;;;;10383819;28;20087;-81
2023/02/27 16:39:40;;;;;;;3.08;1.67;;;;;;;;;;10384600;28;20037;-80
2023/02/27 16:44:41;;;;;;;3.58;1.63;;;;;;;;;;10389692;28;20048;-86
2023/02/27 16:49:44;;;;;;;2.75;1.20;;;;;;;;;;10392452;28;20451;-85
2023/02/27 16:54:45;;;;;;;2.70;1.50;;;;;;;;;;10388402;28;20026;-83
2023/02/27 16:59:46;;;;;;;2.80;1.15;;;;;;;;;;10390183;28;20045;-84
2023/02/27 17:04:48;;;;;;;2.92;1.55;;;;;;;;;;10389479;28;20040;-83
2023/02/27 17:09:50;;;;;;;6.10;2.75;;;;;;;;;;10388747;28;20034;-84
2023/02/27 17:14:51;;;;;;;3.50;1.52;;;;;;;;;;10389420;28;20052;-84
2023/02/27 17:19:53;;;;;;;2.92;1.38;;;;;;;;;;10388719;28;20025;-80
2023/02/27 17:24:54;;;;;;;2.50;1.50;;;;;;;;;;10389374;28;20018;-82
2023/02/27 17:29:55;;;;;;;3.40;1.90;;;;;;;;;;10390170;28;20034;-82
2023/02/27 17:34:57;;;;;;;;;;;;;;;;;;10384424;28;20052;-79
2023/02/27 17:40:02;;;;;;;4.35;2.03;;;;;;;;;;10386734;28;19955;-79
2023/02/27 17:45:05;;;;;;;4.78;2.40;;;;;;;;;;10388060;28;20036;-80
2023/02/27 17:50:06;;;;;;;3.08;1.80;;;;;;;;;;10406748;28;20034;-80
2023/02/27 17:55:08;;;;;;;3.30;2.00;;;;;;;;;;10380400;28;20464;-80
2023/02/27 18:00:15;;;;;;;4.10;1.88;;;;;;;;;;10383404;28;20037;-80
2023/02/27 18:05:16;;;;;;;2.20;1.63;;;;;;;;;;10388125;28;20018;-79
2023/02/27 18:10:18;;;;;;;3.28;2.03;;;;;;;;;;10384691;28;20487;-80
2023/02/27 18:15:18;;;;;;;;;;;;;;;;;;10377767;28;20026;-80
2023/02/27 18:20:19;;;;;;;3.38;2.00;;;;;;;;;;10378563;28;19905;-79
2023/02/27 18:25:22;;;;;;;;;;;;;;;;;;10378345;28;20029;-80
2023/02/27 18:30:23;;;;;;;3.70;2.72;;;;;;;;;;10378325;28;19909;-81
2023/02/27 18:35:24;;;;;;;;;;;;;;;;;;10380134;28;20026;-81
2023/02/27 18:40:25;;;;;;;5.88;2.67;;;;;;;;;;10381227;28;20363;-78
2023/02/27 18:45:28;;;;;;;;;;;;;;;;;;10395204;28;20098;-80
2023/02/27 18:50:29;;;;;;;3.47;2.53;;;;;;;;;;10393159;28;19913;-80
2023/02/27 18:55:30;;;;;;;3.45;2.58;;;;;;;;;;10393990;28;20056;-80
2023/02/27 19:00:31;;;;;;;;;;;;;;;;;;10387382;28;20042;-79
2023/02/27 19:05:32;;;;;;;3.35;2.50;;;;;;;;;;10376546;28;19906;-80
2023/02/27 19:10:37;;;;;;;3.30;2.22;;;;;;;;;;10375597;28;20052;-80
2023/02/27 19:15:39;;;;;;;3.58;2.33;;;;;;;;;;10375795;28;20112;-79
2023/02/27 19:20:40;;;;;;;3.00;2.17;;;;;;;;;;10377610;28;20026;-81
2023/02/27 19:25:41;;;;;;;;;;;;;;;;;;10376377;28;20546;-80
2023/02/27 19:30:42;;;;;;;3.40;2.72;;;;;;;;;;10376403;28;19932;-81
2023/02/27 19:35:43;;;;;;;;;;;;;;;;;;10390917;28;20026;-81
2023/02/27 19:40:44;;;;;;;3.35;2.40;;;;;;;;;;10419945;28;19897;-80
2023/02/27 19:45:45;;;;;;;;;;;;;;;;;;10377370;28;20053;-80
2023/02/27 19:50:47;;;;;;;4.47;2.72;;;;;;;;;;10375994;28;19910;-80
2023/02/27 19:55:57;;;;;;;3.88;2.38;;;;;;;;;;10377610;28;20466;-81
2023/02/27 20:00:58;;;;;;;3.40;2.33;;;;;;;;;;10383565;28;20026;-80
2023/02/27 20:05:59;;;;;;;;;;;;;;;;;;10384528;28;20108;-79
2023/02/27 20:11:01;;;;;;;6.47;3.22;;;;;;;;;;10383488;28;19917;-80
2023/02/27 20:16:04;;;;;;;3.75;2.53;;;;;;;;;;10384196;28;20076;-80
